createdAt,value
2023-03-13T00:01:49.302Z,46.13
2023-03-13T00:06:51.558Z,46.73
2023-03-13T00:11:53.733Z,46.96
2023-03-13T00:16:55.897Z,47.37
2023-03-13T00:21:58.059Z,47.49
2023-03-13T00:27:03.318Z,47.77
2023-03-13T00:32:05.950Z,48.17
2023-03-13T00:37:08.127Z,48.57
2023-03-13T00:42:10.395Z,48.73
2023-03-13T00:47:12.528Z,49.08
2023-03-13T00:52:14.836Z,49.46
2023-03-13T00:57:16.978Z,49.65
2023-03-13T01:02:19.281Z,50.19
2023-03-13T01:07:21.451Z,50.54
2023-03-13T01:12:23.776Z,50.95
2023-03-13T01:17:25.994Z,51.73
2023-03-13T01:22:28.209Z,51.95
2023-03-13T01:27:33.489Z,52.12
2023-03-13T01:32:36.189Z,52.17
2023-03-13T01:37:38.364Z,52.24
2023-03-13T01:43:27.564Z,52.23
2023-03-13T01:49:08.758Z,52.21
2023-03-13T01:54:16.422Z,52.43
2023-03-13T01:59:26.421Z,52.79
2023-03-13T02:04:35.256Z,52.71
2023-03-13T02:09:41.982Z,52.61
2023-03-13T02:14:47.141Z,52.85
2023-03-13T02:19:54.070Z,53.01
2023-03-13T02:25:25.889Z,52.92
2023-03-13T02:30:28.392Z,53.00
2023-03-13T02:35:31.999Z,53.12
2023-03-13T02:40:38.068Z,53.24
2023-03-13T02:45:40.244Z,53.60
2023-03-13T02:50:42.410Z,54.04
2023-03-13T02:55:44.697Z,54.67
2023-03-13T03:00:46.938Z,55.09
2023-03-13T03:05:49.147Z,55.54
2023-03-13T03:10:51.290Z,55.86
2023-03-13T03:15:54.028Z,56.14
2023-03-13T03:20:56.166Z,55.97
2023-03-13T03:25:58.284Z,56.18
2023-03-13T03:31:07.741Z,56.57
2023-03-13T03:36:13.759Z,56.44
2023-03-13T03:41:17.158Z,57.03
2023-03-13T03:46:19.488Z,57.93
2023-03-13T03:51:22.570Z,58.39
2023-03-13T03:56:27.093Z,59.51
2023-03-13T04:01:32.295Z,60.43
2023-03-13T04:06:34.471Z,60.90
2023-03-13T04:11:36.578Z,61.35
2023-03-13T04:16:38.770Z,61.39
2023-03-13T04:21:41.063Z,61.28
2023-03-13T04:26:45.502Z,61.00
2023-03-13T04:31:47.691Z,61.71
2023-03-13T04:36:50.256Z,61.63
2023-03-13T04:41:53.610Z,61.49
2023-03-13T04:46:55.796Z,61.00
2023-03-13T04:51:58.000Z,60.47
2023-03-13T04:57:00.181Z,60.63
2023-03-13T05:02:02.332Z,61.00
2023-03-13T05:07:04.567Z,61.19
2023-03-13T05:12:07.175Z,60.72
2023-03-13T05:17:12.633Z,59.93
2023-03-13T05:22:14.803Z,59.84
2023-03-13T05:27:16.902Z,60.61
2023-03-13T05:32:19.153Z,60.26
2023-03-13T05:37:21.426Z,60.18
2023-03-13T05:42:23.670Z,60.93
2023-03-13T05:47:25.854Z,61.20
2023-03-13T05:52:28.977Z,61.87
2023-03-13T05:57:31.198Z,62.14
2023-03-13T06:02:33.265Z,61.84
2023-03-13T06:07:36.219Z,61.96
2023-03-13T06:12:38.457Z,61.34
2023-03-13T06:17:40.654Z,61.33
2023-03-13T06:22:46.327Z,61.41
2023-03-13T06:27:48.422Z,61.75
2023-03-13T06:32:50.680Z,61.02
2023-03-13T06:37:54.219Z,61.05
2023-03-13T06:42:56.387Z,60.76
2023-03-13T06:47:58.569Z,60.79
2023-03-13T06:53:00.701Z,60.91
2023-03-13T06:58:02.825Z,61.10
2023-03-13T07:03:04.997Z,60.60
2023-03-13T07:08:07.400Z,59.92
2023-03-13T07:13:09.485Z,59.59
2023-03-13T07:18:11.646Z,58.94
2023-03-13T07:23:13.812Z,58.40
2023-03-13T07:28:16.580Z,57.76
2023-03-13T07:33:19.422Z,57.22
2023-03-13T07:38:21.501Z,56.57
2023-03-13T07:43:24.991Z,55.59
2023-03-13T07:48:35.987Z,55.13
2023-03-13T07:53:38.347Z,54.82
2023-03-13T07:58:41.797Z,54.16
2023-03-13T08:03:45.356Z,53.74
2023-03-13T08:08:47.822Z,53.53
2023-03-13T08:13:50.222Z,52.74
2023-03-13T08:18:54.989Z,51.93
2023-03-13T08:23:59.958Z,51.00
2023-03-13T08:29:08.921Z,45.56
2023-03-13T08:34:12.844Z,46.62
2023-03-13T08:39:18.020Z,47.94
2023-03-13T08:44:22.924Z,45.62
2023-03-13T08:49:25.097Z,38.05
2023-03-13T08:54:27.548Z,34.34
2023-03-13T08:59:29.815Z,32.49
2023-03-13T09:04:31.938Z,34.66
2023-03-13T09:09:34.047Z,31.28
2023-03-13T09:14:36.867Z,31.23
2023-03-13T09:19:47.732Z,31.59
2023-03-13T09:24:56.338Z,30.08
2023-03-13T09:29:59.120Z,29.82
2023-03-13T09:35:01.217Z,31.10
2023-03-13T09:40:04.389Z,29.26
2023-03-13T09:45:12.517Z,27.89
2023-03-13T09:50:35.352Z,26.09
2023-03-13T09:55:38.642Z,27.55
2023-03-13T10:00:44.166Z,27.47
2023-03-13T10:05:59.465Z,23.87
2023-03-13T10:11:04.282Z,26.82
2023-03-13T10:16:16.086Z,27.99
2023-03-13T10:21:22.760Z,24.52
2023-03-13T10:26:31.008Z,23.07
2023-03-13T10:31:36.519Z,23.86
2023-03-13T10:36:50.341Z,23.37
2023-03-13T10:42:10.067Z,23.30
2023-03-13T10:47:15.918Z,25.48
2023-03-13T10:52:44.599Z,25.24
2023-03-13T10:58:00.709Z,24.72
2023-03-13T11:03:10.013Z,24.94
2023-03-13T11:08:28.246Z,23.63
2023-03-13T11:13:42.819Z,23.40
2023-03-13T11:19:06.710Z,19.72
2023-03-13T11:24:44.922Z,20.54
2023-03-13T11:30:08.116Z,21.43
2023-03-13T11:35:40.939Z,19.58
2023-03-13T11:41:22.157Z,21.82
2023-03-13T11:46:54.315Z,21.71
2023-03-13T11:52:25.699Z,20.69
2023-03-13T11:57:45.981Z,21.46
2023-03-13T12:03:00.530Z,18.75
2023-03-13T12:08:07.589Z,21.32
2023-03-13T12:13:15.376Z,23.73
2023-03-13T12:18:31.524Z,24.92
2023-03-13T12:23:39.494Z,19.01
2023-03-13T12:28:47.221Z,19.69
2023-03-13T12:34:01.952Z,18.85
2023-03-13T12:39:47.898Z,18.17
2023-03-13T12:44:50.564Z,20.15
2023-03-13T12:50:35.974Z,19.19
2023-03-13T12:56:07.456Z,20.24
2023-03-13T13:01:20.029Z,22.54
2023-03-13T13:06:23.157Z,20.50
2023-03-13T13:11:37.308Z,21.57
2023-03-13T13:16:44.199Z,20.41
2023-03-13T13:21:46.537Z,26.81
2023-03-13T13:26:49.723Z,30.03
2023-03-13T13:31:51.924Z,29.51
2023-03-13T13:36:55.341Z,23.81
2023-03-13T13:41:57.624Z,20.24
2023-03-13T13:47:02.051Z,25.55
2023-03-13T13:52:04.197Z,29.57
2023-03-13T13:57:12.535Z,31.18
2023-03-13T14:02:20.178Z,31.48
2023-03-13T14:07:30.716Z,29.11
2023-03-13T14:12:38.351Z,29.15
2023-03-13T14:17:49.503Z,31.79
2023-03-13T14:22:53.702Z,31.75
2023-03-13T14:27:56.527Z,30.85
2023-03-13T14:32:58.916Z,30.38
2023-03-13T14:38:04.249Z,32.76
2023-03-13T14:43:20.030Z,31.34
2023-03-13T14:48:34.794Z,33.51
2023-03-13T14:53:37.251Z,32.63
2023-03-13T14:58:39.574Z,33.35
2023-03-13T15:03:48.537Z,33.80
2023-03-13T15:09:10.608Z,34.50
2023-03-13T15:14:42.032Z,35.08
2023-03-13T15:19:49.252Z,34.50
2023-03-13T15:25:05.368Z,34.09
2023-03-13T15:30:08.832Z,32.99
2023-03-13T15:35:31.998Z,34.81
2023-03-13T15:40:34.297Z,36.60
2023-03-13T15:45:42.007Z,37.75
2023-03-13T15:50:44.626Z,38.51
2023-03-13T15:55:49.405Z,38.74
2023-03-13T16:00:51.916Z,39.07
2023-03-13T16:05:55.428Z,39.12
2023-03-13T16:10:57.597Z,39.44
2023-03-13T16:15:59.752Z,39.80
2023-03-13T16:21:01.958Z,40.20
2023-03-13T16:26:05.745Z,40.46
2023-03-13T16:31:19.984Z,41.14
2023-03-13T16:36:28.243Z,41.65
2023-03-13T16:41:31.568Z,41.87
2023-03-13T16:46:39.582Z,42.51
2023-03-13T16:51:43.236Z,43.36
2023-03-13T16:56:45.341Z,43.78
2023-03-13T17:01:47.491Z,43.82
2023-03-13T17:06:50.002Z,43.52
2023-03-13T17:11:53.454Z,43.75
2023-03-13T17:17:28.350Z,43.64
2023-03-13T17:22:30.467Z,43.69
2023-03-13T17:27:34.639Z,43.84
2023-03-13T17:32:37.302Z,44.45
2023-03-13T17:37:44.650Z,45.18
2023-03-13T17:42:46.914Z,45.29
2023-03-13T17:47:56.124Z,45.18
2023-03-13T17:52:58.278Z,45.49
2023-03-13T17:58:00.401Z,46.18
2023-03-13T18:08:19.072Z,47.10
2023-03-13T18:13:21.224Z,47.35
2023-03-13T18:18:23.356Z,47.13
2023-03-13T18:23:25.449Z,47.50
2023-03-13T18:28:27.623Z,47.72
2023-03-13T18:33:29.775Z,48.55
2023-03-13T18:38:32.635Z,49.49
2023-03-13T18:43:34.803Z,50.00
2023-03-13T18:48:36.956Z,50.05
2023-03-13T18:53:39.511Z,50.39
2023-03-13T18:58:41.613Z,49.68
2023-03-13T19:03:44.450Z,49.71
2023-03-13T19:08:48.025Z,50.24
2023-03-13T19:13:50.734Z,49.96
2023-03-13T19:18:53.169Z,50.34
2023-03-13T19:23:56.174Z,50.40
2023-03-13T19:28:59.600Z,49.11
2023-03-13T19:34:01.730Z,49.41
2023-03-13T19:39:10.753Z,49.07
2023-03-13T19:44:12.852Z,49.45
2023-03-13T19:49:19.819Z,49.65
2023-03-13T19:54:23.121Z,50.26
2023-03-13T19:59:31.941Z,50.97
2023-03-13T20:04:34.419Z,51.18
2023-03-13T20:09:36.956Z,49.99
2023-03-13T20:14:39.385Z,49.58
2023-03-13T20:19:41.507Z,50.14
2023-03-13T20:24:43.663Z,49.50
2023-03-13T20:29:46.024Z,49.35
2023-03-13T20:34:48.164Z,49.28
2023-03-13T20:39:50.314Z,48.47
2023-03-13T20:44:52.454Z,48.80
2023-03-13T20:49:54.623Z,47.72
2023-03-13T20:54:56.764Z,47.81
2023-03-13T20:59:58.858Z,47.08
2023-03-13T21:05:01.023Z,46.86
2023-03-13T21:10:04.239Z,45.64
2023-03-13T21:15:08.450Z,46.63
2023-03-13T21:20:12.434Z,45.50
2023-03-13T21:25:15.181Z,46.27
2023-03-13T21:30:20.024Z,46.79
2023-03-13T21:35:22.190Z,47.56
2023-03-13T21:40:24.370Z,48.82
2023-03-13T21:45:26.534Z,49.76
2023-03-13T21:50:29.058Z,50.71
2023-03-13T21:55:35.263Z,51.35
2023-03-13T22:00:37.504Z,51.91
2023-03-13T22:05:44.571Z,52.93
2023-03-13T22:10:52.656Z,51.57
2023-03-13T22:15:54.881Z,54.17
2023-03-13T22:20:58.824Z,54.07
2023-03-13T22:26:01.059Z,52.27
2023-03-13T22:31:05.545Z,49.97
2023-03-13T22:36:09.074Z,48.30
2023-03-13T22:41:13.089Z,47.79
2023-03-13T22:46:15.536Z,47.85
2023-03-13T22:51:17.748Z,47.60
2023-03-13T22:56:19.983Z,48.13
2023-03-13T23:01:22.898Z,48.37
2023-03-13T23:06:26.173Z,48.11
2023-03-13T23:11:28.519Z,48.69
2023-03-13T23:16:30.923Z,48.60
2023-03-13T23:21:33.117Z,48.72
2023-03-13T23:26:35.499Z,48.43
2023-03-13T23:31:37.593Z,48.56
2023-03-13T23:36:42.634Z,48.97
2023-03-13T23:41:44.783Z,49.31
2023-03-13T23:46:46.895Z,49.90
2023-03-13T23:51:48.940Z,49.53
2023-03-13T23:56:51.029Z,49.46
